Time;durP1;ratioP1;P1;durP2;ratioP2;P2;SDS_P1;SDS_P2;PMS_P1;PMS_P2;Temp;Humidity;BMP_temperature;BMP_pressure;BME280_temperature;BME280_humidity;BME280_pressure;Samples;Min_cycle;Max_cycle;Signal;HPM_P1;HPM_P2
2023/08/28 00:01:46;;;;;;;1.30;1.20;;;;;;;20.45;100.00;98725.66;5056044;28;20691;-81
2023/08/28 00:04:22;;;;;;;1.60;1.20;;;;;;;20.42;100.00;98732.53;5042398;28;20211;-82
2023/08/28 00:06:53;;;;;;;3.53;1.50;;;;;;;20.44;100.00;98724.03;5050370;28;20221;-82
2023/08/28 00:09:23;;;;;;;2.30;1.50;;;;;;;20.50;100.00;98729.09;5049738;28;20210;-81
2023/08/28 00:11:56;;;;;;;1.50;1.40;;;;;;;20.45;100.00;98725.66;5042446;28;20223;-83
2023/08/28 00:14:30;;;;;;;3.10;1.40;;;;;;;20.49;100.00;98730.19;5040326;28;20205;-82
2023/08/28 00:17:06;;;;;;;1.57;1.47;;;;;;;20.46;100.00;98725.38;5044041;28;20197;-81
2023/08/28 00:19:33;;;;;;;1.67;1.43;;;;;;;20.39;100.00;98730.41;5033057;28;20654;-81
2023/08/28 00:22:05;;;;;;;2.08;1.75;;;;;;;20.44;100.00;98726.78;5044477;28;20205;-81
2023/08/28 00:24:37;;;;;;;1.60;1.50;;;;;;;20.43;100.00;98736.06;5041608;28;20240;-85
2023/08/28 00:27:05;;;;;;;1.97;1.60;;;;;;;20.53;100.00;98722.25;5044388;28;20693;-85
2023/08/28 00:29:42;;;;;;;2.70;1.63;;;;;;;20.48;100.00;98722.34;5042029;28;20229;-81
2023/08/28 00:32:17;;;;;;;1.93;1.80;;;;;;;20.51;100.00;98727.16;5023990;28;20673;-81
2023/08/28 00:34:47;;;;;;;2.20;1.70;;;;;;;20.40;100.00;98715.69;5032156;28;20195;-85
2023/08/28 00:37:14;;;;;;;2.13;1.60;;;;;;;20.37;100.00;98712.78;5043862;28;20225;-81
2023/08/28 00:39:43;;;;;;;2.03;1.80;;;;;;;20.44;100.00;98713.97;5024281;28;20250;-81
2023/08/28 00:42:11;;;;;;;1.60;1.50;;;;;;;20.34;100.00;98716.13;5039451;28;20260;-81
2023/08/28 00:44:40;;;;;;;3.10;1.80;;;;;;;20.34;100.00;98721.56;5060334;28;20285;-81
2023/08/28 00:47:13;;;;;;;2.20;1.93;;;;;;;20.35;100.00;98723.97;5058769;28;20271;-81
2023/08/28 00:49:43;;;;;;;2.50;1.73;;;;;;;20.29;100.00;98721.66;5065187;28;20242;-81
2023/08/28 00:52:15;;;;;;;1.70;1.60;;;;;;;20.34;100.00;98727.00;5041070;28;20213;-81
2023/08/28 00:54:43;;;;;;;1.77;1.50;;;;;;;20.30;100.00;98715.06;5032017;28;20275;-81
2023/08/28 00:57:12;;;;;;;1.70;1.60;;;;;;;20.26;100.00;98714.88;5066425;28;20213;-82
2023/08/28 00:59:42;;;;;;;1.70;1.60;;;;;;;20.19;100.00;98718.03;5063478;28;20220;-81
2023/08/28 01:02:21;;;;;;;2.10;1.50;;;;;;;20.26;100.00;98714.06;5063826;28;20299;-81
2023/08/28 01:04:58;;;;;;;1.83;1.40;;;;;;;20.22;100.00;98722.03;5060824;28;20213;-81
2023/08/28 01:07:35;;;;;;;1.83;1.40;;;;;;;20.35;100.00;98715.81;5065118;28;20291;-83
2023/08/28 01:10:17;;;;;;;1.63;1.40;;;;;;;20.25;100.00;98716.00;5051179;28;20264;-81
2023/08/28 01:13:16;;;;;;;2.57;1.70;;;;;;;20.33;100.00;98718.03;5063772;28;20214;-84
2023/08/28 01:15:49;;;;;;;1.60;1.50;;;;;;;20.13;100.00;98716.53;5052131;28;20200;-83
2023/08/28 01:18:26;;;;;;;1.40;1.30;;;;;;;20.19;100.00;98728.09;5059541;28;20203;-81
2023/08/28 01:20:59;;;;;;;2.13;1.50;;;;;;;20.25;100.00;98717.94;5074283;28;20285;-81
2023/08/28 01:23:28;;;;;;;1.40;1.30;;;;;;;20.11;100.00;98721.44;5067043;28;20202;-82
2023/08/28 01:25:57;;;;;;;3.27;1.40;;;;;;;20.13;100.00;98711.09;5062885;28;20199;-81
2023/08/28 01:28:28;;;;;;;2.83;1.60;;;;;;;20.11;100.00;98710.56;5064518;28;20244;-80
2023/08/28 01:30:59;;;;;;;1.93;1.60;;;;;;;20.05;100.00;98717.25;5070283;28;20789;-82
2023/08/28 01:33:27;;;;;;;2.77;1.50;;;;;;;20.03;100.00;98729.50;5065010;28;20191;-81
2023/08/28 01:36:06;;;;;;;1.83;1.40;;;;;;;19.95;100.00;98722.88;5068428;28;20209;-81
2023/08/28 01:38:36;;;;;;;1.93;1.53;;;;;;;20.12;100.00;98709.47;5064092;28;20210;-84
2023/08/28 01:41:12;;;;;;;1.77;1.53;;;;;;;20.26;100.00;98704.00;5063757;28;20203;-81
2023/08/28 01:43:49;;;;;;;2.33;1.63;;;;;;;20.07;100.00;98706.03;5059506;28;20307;-81
2023/08/28 01:46:22;;;;;;;2.47;1.60;;;;;;;19.96;100.00;98693.78;5051877;28;20192;-82
2023/08/28 01:48:54;;;;;;;1.57;1.40;;;;;;;19.95;100.00;98700.31;5056941;28;20759;-82
2023/08/28 01:51:27;;;;;;;2.00;1.50;;;;;;;19.96;100.00;98694.59;5066230;28;20270;-81
2023/08/28 01:54:01;;;;;;;2.50;1.40;;;;;;;19.88;100.00;98702.63;5070291;28;20592;-82
2023/08/28 01:56:31;;;;;;;1.67;1.50;;;;;;;19.94;100.00;98710.38;5068626;28;20209;-84
2023/08/28 01:59:02;;;;;;;1.43;1.30;;;;;;;19.92;100.00;98712.63;5038413;28;20670;-82
2023/08/28 02:01:34;;;;;;;2.43;1.57;;;;;;;19.90;100.00;98722.16;5059124;28;20200;-81
2023/08/28 02:04:08;;;;;;;1.67;1.40;;;;;;;19.86;100.00;98715.72;5058969;28;20298;-83
2023/08/28 02:06:36;;;;;;;1.73;1.60;;;;;;;19.83;100.00;98717.13;5064829;28;20647;-82
2023/08/28 02:09:07;;;;;;;2.27;1.47;;;;;;;19.78;100.00;98731.63;5066153;28;20292;-82
2023/08/28 02:11:38;;;;;;;2.57;1.30;;;;;;;19.83;100.00;98732.66;5063568;28;20261;-82
2023/08/28 02:14:07;;;;;;;2.57;1.30;;;;;;;19.67;100.00;98734.84;5060858;28;20217;-81
2023/08/28 02:16:39;;;;;;;1.60;1.30;;;;;;;19.75;100.00;98737.66;5062496;28;20220;-82
2023/08/28 02:19:07;;;;;;;1.70;1.60;;;;;;;19.75;100.00;98751.25;5063747;28;20236;-81
2023/08/28 02:21:41;;;;;;;3.00;1.30;;;;;;;19.69;100.00;98752.44;5057067;28;20559;-81
2023/08/28 02:24:18;;;;;;;1.87;1.40;;;;;;;19.72;100.00;98764.66;5065995;28;20647;-81
2023/08/28 02:26:47;;;;;;;1.40;1.30;;;;;;;19.65;100.00;98769.66;5045454;28;20219;-81
2023/08/28 02:29:23;;;;;;;1.50;1.40;;;;;;;19.62;100.00;98773.78;5061567;28;20224;-81
2023/08/28 02:31:56;;;;;;;2.33;1.40;;;;;;;19.72;100.00;98775.50;5053830;28;20201;-82
2023/08/28 02:34:28;;;;;;;1.50;1.30;;;;;;;19.62;100.00;98778.41;5052679;28;20209;-82
2023/08/28 02:37:05;;;;;;;1.67;1.20;;;;;;;19.56;100.00;98771.44;5067869;28;20202;-82
2023/08/28 02:39:33;;;;;;;2.40;1.30;;;;;;;19.60;100.00;98775.97;5075863;28;20201;-82
2023/08/28 02:42:01;;;;;;;1.10;1.00;;;;;;;19.60;100.00;98781.41;5055921;28;20238;-81
2023/08/28 02:44:39;;;;;;;1.53;1.20;;;;;;;19.72;100.00;98779.03;5026714;28;20694;-83
2023/08/28 02:47:08;;;;;;;1.43;1.30;;;;;;;19.68;100.00;98785.38;5041972;28;20313;-81
2023/08/28 02:49:38;;;;;;;1.40;1.30;;;;;;;19.57;100.00;98775.78;5027726;28;20829;-81
2023/08/28 02:52:17;;;;;;;1.90;1.30;;;;;;;19.51;100.00;98774.25;5024027;28;20209;-82
2023/08/28 02:54:47;;;;;;;1.37;1.23;;;;;;;19.52;100.00;98760.38;5024599;28;20296;-81
2023/08/28 02:57:18;;;;;;;1.37;1.27;;;;;;;19.47;100.00;98755.03;5050539;28;20248;-81
2023/08/28 02:59:45;;;;;;;1.40;1.30;;;;;;;19.60;100.00;98754.25;5047090;28;20217;-82
2023/08/28 03:02:16;;;;;;;1.57;1.37;;;;;;;19.53;100.00;98756.56;5042132;28;20195;-81
2023/08/28 03:04:51;;;;;;;1.43;1.30;;;;;;;19.38;100.00;98747.81;5032382;28;20303;-81
2023/08/28 03:07:22;;;;;;;2.30;1.10;;;;;;;19.26;100.00;98735.56;5048419;28;20799;-81
2023/08/28 03:09:49;;;;;;;3.13;1.30;;;;;;;19.32;100.00;98742.47;5033779;28;20282;-81
2023/08/28 03:12:19;;;;;;;1.67;1.30;;;;;;;19.22;100.00;98733.72;5049613;28;20224;-81
2023/08/28 03:14:57;;;;;;;2.10;1.43;;;;;;;19.19;100.00;98726.97;5028139;28;20202;-81
2023/08/28 03:17:28;;;;;;;1.93;1.50;;;;;;;19.17;100.00;98723.75;5032540;28;20200;-81
2023/08/28 03:19:55;;;;;;;1.60;1.50;;;;;;;19.18;100.00;98738.91;5022689;28;20264;-82
2023/08/28 03:22:25;;;;;;;1.57;1.30;;;;;;;19.24;100.00;98742.38;5036605;28;20200;-81
2023/08/28 03:25:06;;;;;;;1.20;1.10;;;;;;;19.17;100.00;98737.34;5035520;28;20289;-82
2023/08/28 03:27:35;;;;;;;4.03;1.47;;;;;;;19.19;100.00;98735.09;5032078;28;20279;-83
2023/08/28 03:30:07;;;;;;;1.33;1.23;;;;;;;19.12;100.00;98729.28;5052823;28;20225;-81
2023/08/28 03:32:41;;;;;;;1.40;1.30;;;;;;;19.18;100.00;98703.63;5035645;28;20203;-82
2023/08/28 03:35:11;;;;;;;2.20;1.23;;;;;;;19.20;100.00;98697.91;5033951;28;20215;-81
2023/08/28 03:37:47;;;;;;;1.47;1.37;;;;;;;19.27;100.00;98696.41;5033462;28;20216;-81
2023/08/28 03:40:16;;;;;;;1.60;1.33;;;;;;;19.17;100.00;98703.94;5046109;28;20285;-81
2023/08/28 03:42:53;;;;;;;3.23;1.40;;;;;;;19.09;100.00;98713.56;5048279;28;20238;-81
2023/08/28 03:45:22;;;;;;;2.13;1.40;;;;;;;19.14;100.00;98696.38;5039543;28;20248;-82
2023/08/28 03:47:57;;;;;;;1.40;1.30;;;;;;;19.15;100.00;98692.56;5043602;28;20195;-82
2023/08/28 03:50:30;;;;;;;1.63;1.40;;;;;;;19.11;100.00;98696.97;5046409;28;20216;-83
2023/08/28 03:52:59;;;;;;;3.13;1.40;;;;;;;19.04;100.00;98685.69;5028109;28;20217;-80
2023/08/28 03:55:37;;;;;;;1.30;1.20;;;;;;;19.00;100.00;98692.81;5028444;28;20196;-80
2023/08/28 03:58:07;;;;;;;3.13;1.47;;;;;;;18.97;100.00;98691.50;5047753;28;20270;-83
2023/08/28 04:00:35;;;;;;;1.27;1.17;;;;;;;19.00;100.00;98699.03;5026913;28;20694;-80
2023/08/28 04:03:04;;;;;;;1.60;1.20;;;;;;;19.08;100.00;98692.97;5019274;28;20203;-79
2023/08/28 04:05:39;;;;;;;2.30;1.23;;;;;;;19.10;100.00;98688.03;5017603;28;20502;-79
2023/08/28 04:08:13;;;;;;;1.27;1.17;;;;;;;19.04;100.00;98682.97;5044953;28;20224;-79
2023/08/28 04:10:41;;;;;;;2.17;1.20;;;;;;;19.01;100.00;98689.00;5015982;28;20242;-79
2023/08/28 04:13:11;;;;;;;2.03;1.30;;;;;;;19.09;100.00;98688.31;5021471;28;20681;-79
2023/08/28 04:15:51;;;;;;;1.40;1.30;;;;;;;19.19;100.00;98683.53;5028809;28;20210;-79
2023/08/28 04:18:20;;;;;;;1.20;1.13;;;;;;;19.18;100.00;98681.09;5027259;28;20346;-79
2023/08/28 04:20:51;;;;;;;1.27;1.17;;;;;;;19.15;100.00;98665.41;5051780;28;20216;-80
2023/08/28 04:23:25;;;;;;;1.77;1.20;;;;;;;19.10;100.00;98671.72;5041460;28;20288;-79
2023/08/28 04:26:02;;;;;;;2.03;1.20;;;;;;;19.08;100.00;98679.38;5022724;28;20206;-79
2023/08/28 04:28:30;;;;;;;1.30;1.20;;;;;;;19.10;100.00;98673.63;5023998;28;20209;-80
2023/08/28 04:31:09;;;;;;;1.47;1.30;;;;;;;19.07;100.00;98657.97;5040720;28;20304;-83
2023/08/28 04:33:37;;;;;;;7.03;1.57;;;;;;;19.20;100.00;98655.28;5022244;28;20236;-82
2023/08/28 04:36:23;;;;;;;4.33;1.30;;;;;;;19.09;100.00;98667.41;5016948;28;20204;-80
2023/08/28 04:38:58;;;;;;;3.07;1.47;;;;;;;19.11;100.00;98667.91;5037511;28;20191;-80
2023/08/28 04:41:26;;;;;;;2.73;1.00;;;;;;;19.02;100.00;98671.63;5036836;28;20199;-79
2023/08/28 04:43:53;;;;;;;2.10;1.43;;;;;;;19.11;100.00;98664.41;5018979;28;20199;-79
2023/08/28 04:46:25;;;;;;;4.67;1.30;;;;;;;19.08;100.00;98665.00;5045821;28;20195;-80
2023/08/28 04:48:53;;;;;;;2.87;1.30;;;;;;;19.02;100.00;98660.75;5006572;28;20208;-80
2023/08/28 04:51:21;;;;;;;3.33;1.27;;;;;;;18.95;100.00;98652.97;5028214;28;20878;-81
2023/08/28 04:53:52;;;;;;;2.00;1.30;;;;;;;18.88;100.00;98641.72;5028313;28;20201;-80
2023/08/28 04:56:25;;;;;;;1.20;1.10;;;;;;;19.02;100.00;98648.00;5025374;28;20771;-86
2023/08/28 04:59:11;;;;;;;1.63;1.10;;;;;;;18.99;100.00;98651.28;5040395;28;20197;-79
2023/08/28 05:01:53;;;;;;;1.60;1.10;;;;;;;18.94;100.00;98645.16;5002652;28;20238;-79
2023/08/28 05:04:24;;;;;;;3.93;1.20;;;;;;;18.89;100.00;98648.78;5026300;28;20661;-79
2023/08/28 05:06:57;;;;;;;1.57;1.23;;;;;;;18.92;100.00;98654.41;5025472;28;20197;-79
2023/08/28 05:09:35;;;;;;;1.40;1.30;;;;;;;18.88;100.00;98650.69;5017870;28;20197;-79
2023/08/28 05:12:05;;;;;;;1.50;1.00;;;;;;;18.95;100.00;98641.31;5020558;28;20259;-80
2023/08/28 05:14:42;;;;;;;;;;;;;;;;;;;;;
2023/08/28 05:17:15;;;;;;;1.20;1.10;;;;;;;19.03;100.00;98651.53;5039983;28;20634;-79
2023/08/28 05:19:46;;;;;;;1.27;0.90;;;;;;;18.97;100.00;98648.06;5046418;28;20198;-80
2023/08/28 05:22:15;;;;;;;1.33;1.20;;;;;;;19.10;100.00;98649.22;5039809;28;20204;-79
2023/08/28 05:24:43;;;;;;;1.80;1.10;;;;;;;19.08;100.00;98646.81;5024231;28;20193;-80
2023/08/28 05:27:21;;;;;;;1.57;1.00;;;;;;;19.08;100.00;98638.66;5040852;28;20268;-79
2023/08/28 05:29:54;;;;;;;0.90;0.90;;;;;;;19.10;100.00;98643.78;5024753;28;20226;-79
2023/08/28 05:32:23;;;;;;;1.47;0.87;;;;;;;19.13;100.00;98643.19;5021453;28;20316;-80
2023/08/28 05:34:58;;;;;;;1.20;1.10;;;;;;;19.22;100.00;98636.75;5029189;28;20295;-80
2023/08/28 05:37:30;;;;;;;2.57;1.00;;;;;;;19.26;100.00;98636.97;5042059;28;20192;-79
2023/08/28 05:40:08;;;;;;;1.03;1.03;;;;;;;19.29;100.00;98634.47;5031292;28;20206;-80
2023/08/28 05:42:39;;;;;;;1.73;1.10;;;;;;;19.35;100.00;98622.41;5022573;28;20227;-80
2023/08/28 05:45:07;;;;;;;2.37;1.20;;;;;;;19.37;100.00;98622.09;5052456;28;20686;-80
2023/08/28 05:47:38;;;;;;;1.47;1.33;;;;;;;19.48;100.00;98620.00;5052159;28;20202;-79
2023/08/28 05:50:06;;;;;;;1.33;1.20;;;;;;;19.57;100.00;98615.47;5050956;28;20208;-80
2023/08/28 05:52:37;;;;;;;1.10;1.00;;;;;;;19.49;100.00;98614.28;5055276;28;20251;-79
2023/08/28 05:55:11;;;;;;;1.40;1.10;;;;;;;19.64;100.00;98613.19;5063700;28;20321;-76
2023/08/28 05:57:40;;;;;;;1.73;1.33;;;;;;;19.65;100.00;98612.06;5069215;28;20273;-76
2023/08/28 06:00:15;;;;;;;3.73;1.00;;;;;;;19.88;100.00;98621.09;5061372;28;20215;-76
2023/08/28 06:02:51;;;;;;;1.43;0.90;;;;;;;19.92;100.00;98631.06;5063421;28;20261;-76
2023/08/28 06:05:24;;;;;;;1.10;1.00;;;;;;;19.93;100.00;98626.41;5043291;28;20239;-76
2023/08/28 06:07:52;;;;;;;1.23;1.13;;;;;;;19.95;100.00;98627.72;5063561;28;20208;-77
2023/08/28 06:10:23;;;;;;;1.07;1.07;;;;;;;19.99;100.00;98630.63;5063537;28;20674;-76
2023/08/28 06:12:52;;;;;;;1.90;1.03;;;;;;;20.05;100.00;98635.69;5058360;28;20223;-76
2023/08/28 06:15:25;;;;;;;1.67;1.20;;;;;;;20.16;100.00;98631.59;5063703;28;20197;-76
2023/08/28 06:17:54;;;;;;;2.20;1.10;;;;;;;20.27;100.00;98634.09;5063111;28;20673;-75
2023/08/28 06:20:22;;;;;;;1.07;0.97;;;;;;;20.30;100.00;98637.03;5053718;28;20287;-75
2023/08/28 06:22:53;;;;;;;1.43;1.20;;;;;;;20.36;100.00;98630.38;5050460;28;20220;-75
2023/08/28 06:25:20;;;;;;;1.20;1.10;;;;;;;20.54;100.00;98639.47;5063645;28;20718;-76
2023/08/28 06:27:47;;;;;;;2.60;1.20;;;;;;;20.56;100.00;98640.78;5051704;28;20670;-76
2023/08/28 06:30:17;;;;;;;1.03;1.00;;;;;;;20.67;100.00;98640.56;5059633;28;20282;-76
2023/08/28 06:32:44;;;;;;;2.03;1.20;;;;;;;20.79;100.00;98648.94;5051057;28;20190;-76
2023/08/28 06:35:11;;;;;;;1.20;0.97;;;;;;;20.51;100.00;98649.06;5055577;28;20196;-76
2023/08/28 06:37:39;;;;;;;1.53;1.10;;;;;;;20.66;100.00;98639.75;5062241;28;20197;-76
2023/08/28 06:40:12;;;;;;;1.20;1.10;;;;;;;20.70;100.00;98640.72;5063045;28;20225;-81
2023/08/28 06:42:43;;;;;;;1.47;0.80;;;;;;;20.81;100.00;98638.56;5047907;28;20242;-76
2023/08/28 06:45:12;;;;;;;1.33;0.93;;;;;;;20.88;100.00;98633.47;5017200;28;20219;-76
2023/08/28 06:47:39;;;;;;;1.27;1.10;;;;;;;20.91;100.00;98630.13;5034945;28;20195;-76
2023/08/28 06:50:08;;;;;;;1.83;1.10;;;;;;;20.96;100.00;98627.28;5040204;28;20208;-77
2023/08/28 06:52:36;;;;;;;2.10;1.00;;;;;;;21.12;100.00;98616.81;5046970;28;20704;-75
2023/08/28 06:55:03;;;;;;;2.03;1.30;;;;;;;20.98;100.00;98608.72;5045854;28;20197;-76
2023/08/28 06:57:30;;;;;;;2.10;1.10;;;;;;;21.12;100.00;98605.91;5046080;28;20221;-76
2023/08/28 06:59:57;;;;;;;2.23;1.20;;;;;;;21.08;100.00;98598.38;5028579;28;20266;-77
2023/08/28 07:02:24;;;;;;;1.23;0.90;;;;;;;20.90;100.00;98604.81;5046608;28;20208;-75
2023/08/28 07:04:52;;;;;;;1.87;1.10;;;;;;;21.19;100.00;98609.00;5046840;28;20269;-77
2023/08/28 07:07:20;;;;;;;3.57;1.10;;;;;;;21.33;100.00;98610.50;5046215;28;20273;-77
2023/08/28 07:09:51;;;;;;;3.90;0.97;;;;;;;21.08;100.00;98597.56;5041329;28;20740;-78
2023/08/28 07:12:18;;;;;;;1.67;1.10;;;;;;;21.52;100.00;98580.28;5037137;28;20290;-76
2023/08/28 07:15:06;;;;;;;2.07;1.20;;;;;;;21.59;100.00;98577.91;5039757;28;20196;-76
2023/08/28 07:17:33;;;;;;;1.40;0.90;;;;;;;21.63;100.00;98580.81;5038739;28;20221;-75
2023/08/28 07:20:00;;;;;;;1.83;1.20;;;;;;;21.64;100.00;98580.50;5041067;28;20239;-77
2023/08/28 07:22:27;;;;;;;2.03;1.20;;;;;;;21.95;100.00;98583.16;5044476;28;20205;-77
2023/08/28 07:24:55;;;;;;;2.00;1.27;;;;;;;21.87;100.00;98590.16;5042294;28;20209;-76
2023/08/28 07:27:22;;;;;;;1.73;1.00;;;;;;;21.76;100.00;98588.84;5020066;28;20193;-76
2023/08/28 07:29:50;;;;;;;1.27;1.07;;;;;;;21.93;100.00;98583.44;5036718;28;20221;-77
2023/08/28 07:32:16;;;;;;;2.70;1.30;;;;;;;21.98;100.00;98598.84;5035440;28;20234;-75
2023/08/28 07:34:43;;;;;;;2.33;1.23;;;;;;;21.86;100.00;98585.03;5035307;28;20659;-78
2023/08/28 07:37:10;;;;;;;1.57;1.20;;;;;;;22.32;100.00;98577.06;5046124;28;20206;-78
2023/08/28 07:39:37;;;;;;;3.72;1.08;;;;;;;22.39;100.00;98574.66;5018775;28;20212;-76
2023/08/28 07:42:06;;;;;;;2.13;1.20;;;;;;;22.39;100.00;98563.75;5033331;28;20226;-75
2023/08/28 07:44:32;;;;;;;3.63;1.42;;;;;;;22.44;100.00;98542.88;5036707;28;20204;-75
2023/08/28 07:47:02;;;;;;;3.47;1.00;;;;;;;22.39;100.00;98535.66;5039610;28;20222;-76
2023/08/28 07:49:32;;;;;;;1.70;1.30;;;;;;;22.48;100.00;98519.28;5036427;28;20221;-75
2023/08/28 07:51:58;;;;;;;2.47;1.30;;;;;;;22.51;100.00;98524.06;5034710;28;20288;-75
2023/08/28 07:54:25;;;;;;;1.60;1.45;;;;;;;22.01;100.00;98518.34;5033656;28;20191;-75
2023/08/28 07:56:52;;;;;;;1.38;1.27;;;;;;;21.94;100.00;98533.25;5036280;28;20190;-76
2023/08/28 07:59:20;;;;;;;1.73;1.27;;;;;;;22.39;100.00;98528.28;5039295;28;20205;-76
2023/08/28 08:01:48;;;;;;;1.98;1.00;;;;;;;22.38;100.00;98531.31;5034704;28;20218;-75
2023/08/28 08:04:14;;;;;;;2.75;1.10;;;;;;;22.69;100.00;98533.81;5037870;28;20714;-76
2023/08/28 08:06:42;;;;;;;1.50;1.40;;;;;;;22.63;100.00;98546.84;5045034;28;20198;-79
2023/08/28 08:09:09;;;;;;;2.95;1.67;;;;;;;22.84;100.00;98541.53;5036880;28;20254;-75
2023/08/28 08:11:36;;;;;;;1.60;1.40;;;;;;;22.43;100.00;98544.81;5038236;28;20271;-75
2023/08/28 08:14:03;;;;;;;2.25;1.20;;;;;;;22.79;100.00;98536.25;5034574;28;20206;-77
2023/08/28 08:16:30;;;;;;;2.88;1.23;;;;;;;22.82;100.00;98525.47;5044023;28;20663;-76
2023/08/28 08:18:57;;;;;;;3.90;1.58;;;;;;;22.92;100.00;98518.03;5034930;28;20252;-76
2023/08/28 08:21:25;;;;;;;3.17;1.52;;;;;;;22.93;100.00;98517.72;5040202;28;20231;-78
2023/08/28 08:23:52;;;;;;;1.35;1.25;;;;;;;23.08;100.00;98517.19;5038455;28;20207;-77
2023/08/28 08:26:19;;;;;;;3.60;1.40;;;;;;;22.75;100.00;98516.97;5038784;28;20193;-76
2023/08/28 08:28:48;;;;;;;1.50;1.35;;;;;;;22.78;100.00;98512.78;5035929;28;20196;-75
2023/08/28 08:31:15;;;;;;;1.52;1.40;;;;;;;22.69;100.00;98514.72;5039117;28;20237;-77
2023/08/28 08:33:43;;;;;;;1.67;1.52;;;;;;;23.32;100.00;98504.84;5038425;28;20273;-77
2023/08/28 08:36:14;;;;;;;1.50;1.23;;;;;;;23.62;100.00;98504.53;5024179;28;20244;-75
2023/08/28 08:38:42;;;;;;;1.40;1.30;;;;;;;23.66;100.00;98505.44;5038360;28;20199;-76
2023/08/28 08:41:08;;;;;;;1.52;1.42;;;;;;;23.97;100.00;98498.81;5041549;28;20232;-75
2023/08/28 08:43:35;;;;;;;2.08;1.50;;;;;;;23.62;100.00;98501.78;5040058;28;20202;-76
2023/08/28 08:46:06;;;;;;;2.42;1.63;;;;;;;23.79;100.00;98489.13;5017807;28;20567;-75
2023/08/28 08:48:36;;;;;;;2.85;1.33;;;;;;;23.75;100.00;98494.44;5034015;28;20692;-77
2023/08/28 08:51:06;;;;;;;3.05;1.48;;;;;;;23.38;100.00;98485.19;5035898;28;20186;-75
2023/08/28 08:53:43;;;;;;;2.53;1.60;;;;;;;23.56;100.00;98475.78;5047610;28;20277;-77
2023/08/28 08:56:14;;;;;;;1.58;1.33;;;;;;;23.11;100.00;98472.81;5023854;28;20194;-76
2023/08/28 08:58:41;;;;;;;2.90;1.83;;;;;;;23.36;100.00;98471.06;5018822;28;20221;-80
2023/08/28 09:01:09;;;;;;;2.63;1.90;;;;;;;23.57;100.00;98471.09;5026730;28;20202;-80
2023/08/28 09:03:38;;;;;;;1.75;1.48;;;;;;;23.89;100.00;98475.06;5045644;28;20194;-78
2023/08/28 09:06:06;;;;;;;2.03;1.58;;;;;;;23.53;100.00;98467.44;5041341;28;20208;-79
2023/08/28 09:08:36;;;;;;;2.83;1.77;;;;;;;23.99;100.00;98474.63;5046314;28;20681;-79
2023/08/28 09:11:08;;;;;;;1.90;1.40;;;;;;;24.10;100.00;98473.91;5037050;28;20240;-78
2023/08/28 09:13:36;;;;;;;3.10;1.88;;;;;;;24.33;100.00;98474.34;5039785;28;20277;-78
2023/08/28 09:16:03;;;;;;;2.90;1.60;;;;;;;24.33;100.00;98479.81;5044872;28;20225;-79
2023/08/28 09:18:31;;;;;;;3.50;1.65;;;;;;;24.41;100.00;98481.66;5038452;28;20203;-80
2023/08/28 09:21:11;;;;;;;2.50;1.70;;;;;;;24.46;100.00;98470.50;5042178;28;20272;-79
2023/08/28 09:23:50;;;;;;;2.22;1.60;;;;;;;24.85;100.00;98466.34;5045529;28;20210;-81
2023/08/28 09:26:19;;;;;;;3.10;1.67;;;;;;;24.65;100.00;98469.97;5051321;28;20208;-80
2023/08/28 09:29:02;;;;;;;2.88;1.92;;;;;;;24.29;100.00;98462.47;5019858;28;20665;-79
2023/08/28 09:31:40;;;;;;;2.22;1.90;;;;;;;23.93;100.00;98467.78;5043012;28;20279;-78
2023/08/28 09:34:08;;;;;;;2.92;2.50;;;;;;;24.02;100.00;98468.50;5031764;28;20208;-81
2023/08/28 09:36:38;;;;;;;2.08;1.90;;;;;;;24.53;100.00;98464.50;5022846;28;20193;-78
2023/08/28 09:39:11;;;;;;;2.28;1.92;;;;;;;24.61;100.00;98454.56;5016681;28;20201;-78
2023/08/28 09:41:38;;;;;;;2.60;2.00;;;;;;;24.59;100.00;98454.13;5045379;28;20237;-80
2023/08/28 09:44:09;;;;;;;2.53;2.05;;;;;;;23.84;100.00;98451.44;5042679;28;20194;-79
2023/08/28 09:46:36;;;;;;;2.42;2.22;;;;;;;24.42;100.00;98435.94;5039481;28;20191;-78
2023/08/28 09:49:08;;;;;;;3.97;2.50;;;;;;;24.63;100.00;98442.16;5044620;28;20201;-79
2023/08/28 09:51:41;;;;;;;4.57;2.03;;;;;;;24.74;100.00;98445.22;5026426;28;20229;-83
2023/08/28 09:54:12;;;;;;;3.03;2.35;;;;;;;24.43;100.00;98443.81;5022372;28;20208;-78
2023/08/28 09:56:40;;;;;;;3.22;2.40;;;;;;;24.88;100.00;98446.53;5021440;28;20189;-78
2023/08/28 09:59:10;;;;;;;3.72;2.35;;;;;;;24.94;100.00;98439.69;5019337;28;20194;-79
2023/08/28 10:01:40;;;;;;;3.13;2.33;;;;;;;25.64;100.00;98428.53;5031257;28;20202;-79
2023/08/28 10:04:09;;;;;;;5.68;2.42;;;;;;;25.38;100.00;98439.88;5040611;28;20702;-78
2023/08/28 10:06:44;;;;;;;4.28;2.40;;;;;;;25.16;100.00;98423.91;5041127;28;20188;-78
2023/08/28 10:09:18;;;;;;;4.15;2.50;;;;;;;25.41;100.00;98420.78;5041246;28;20284;-79
2023/08/28 10:11:52;;;;;;;3.00;2.45;;;;;;;25.56;100.00;98413.81;5018804;28;20216;-78
2023/08/28 10:14:21;;;;;;;3.22;2.63;;;;;;;25.72;100.00;98400.97;5039951;28;20682;-79
2023/08/28 10:17:00;;;;;;;3.58;2.35;;;;;;;25.91;100.00;98402.25;5021533;28;20197;-82
2023/08/28 10:19:38;;;;;;;3.08;2.60;;;;;;;25.67;100.00;98408.63;5014170;28;20196;-78
2023/08/28 10:22:08;;;;;;;4.00;2.78;;;;;;;25.44;100.00;98384.44;4998275;28;20695;-79
2023/08/28 10:24:39;;;;;;;3.78;2.50;;;;;;;25.13;100.00;98384.31;5013464;28;20646;-79
2023/08/28 10:27:11;;;;;;;4.38;2.67;;;;;;;25.19;100.00;98373.91;5023911;28;20200;-78
2023/08/28 10:29:43;;;;;;;3.05;2.85;;;;;;;24.94;100.00;98362.16;5029442;28;20726;-78
2023/08/28 10:32:11;;;;;;;4.35;2.65;;;;;;;24.90;100.00;98353.03;5002008;28;20291;-78
2023/08/28 10:34:42;;;;;;;3.45;2.80;;;;;;;24.89;100.00;98348.69;5008556;28;20243;-78
2023/08/28 10:37:12;;;;;;;3.53;2.95;;;;;;;24.90;100.00;98359.31;5017553;28;20192;-78
2023/08/28 10:39:57;;;;;;;4.00;3.25;;;;;;;24.65;100.00;98354.16;5043660;28;20198;-80
2023/08/28 10:42:26;;;;;;;3.30;3.00;;;;;;;25.16;100.00;98349.91;5041700;28;20275;-81
2023/08/28 10:44:54;;;;;;;5.03;3.53;;;;;;;25.00;100.00;98360.81;5050816;28;20196;-80
2023/08/28 10:47:25;;;;;;;3.92;2.90;;;;;;;25.27;100.00;98348.28;5064803;28;20204;-80
2023/08/28 10:49:58;;;;;;;3.55;3.25;;;;;;;24.95;100.00;98348.13;5060325;28;20201;-79
2023/08/28 10:52:27;;;;;;;3.97;3.58;;;;;;;25.21;100.00;98341.44;5060384;28;20245;-78
2023/08/28 10:54:59;;;;;;;4.13;3.38;;;;;;;25.29;100.00;98344.03;5060236;28;20257;-79
2023/08/28 10:57:30;;;;;;;3.67;3.20;;;;;;;25.77;100.00;98336.81;5060897;28;20276;-78
2023/08/28 11:00:16;;;;;;;5.40;3.50;;;;;;;25.72;100.00;98351.59;5054567;28;20191;-80
2023/08/28 11:03:09;;;;;;;5.60;3.72;;;;;;;25.35;100.00;98352.84;5054424;28;20197;-80
2023/08/28 11:05:38;;;;;;;4.10;3.75;;;;;;;25.60;100.00;98339.88;5056812;28;20242;-78
2023/08/28 11:08:08;;;;;;;5.45;3.55;;;;;;;26.02;100.00;98321.84;5063177;28;20226;-78
2023/08/28 11:10:38;;;;;;;3.95;3.50;;;;;;;26.07;100.00;98332.56;5058017;28;20221;-78
2023/08/28 11:13:06;;;;;;;4.50;3.45;;;;;;;26.09;100.00;98322.00;5063216;28;20233;-79
2023/08/28 11:15:35;;;;;;;3.97;3.33;;;;;;;25.52;100.00;98305.16;5059117;28;20197;-79
2023/08/28 11:18:24;;;;;;;4.55;3.70;;;;;;;25.75;100.00;98292.50;5062978;28;20201;-78
2023/08/28 11:20:53;;;;;;;4.00;3.70;;;;;;;25.35;100.00;98281.56;5057687;28;20803;-80
2023/08/28 11:23:36;;;;;;;3.90;3.60;;;;;;;25.43;100.00;98273.19;5052169;28;20205;-80
2023/08/28 11:26:26;;;;;;;5.32;3.42;;;;;;;25.95;100.00;98276.94;5054483;28;20199;-79
2023/08/28 11:28:54;;;;;;;4.05;3.70;;;;;;;25.94;100.00;98267.94;5044587;28;20198;-80
2023/08/28 11:31:33;;;;;;;4.10;3.30;;;;;;;25.80;100.00;98267.56;5062048;28;20209;-79
2023/08/28 11:34:00;;;;;;;3.95;3.60;;;;;;;24.42;100.00;98249.78;5059428;28;20265;-79
2023/08/28 11:36:37;;;;;;;3.60;3.30;;;;;;;24.15;100.00;98237.56;5063274;28;20193;-79
2023/08/28 11:39:22;;;;;;;5.13;3.92;;;;;;;24.48;100.00;98257.44;5059533;28;20209;-80
2023/08/28 11:41:50;;;;;;;7.05;4.53;;;;;;;24.23;100.00;98255.03;5061720;28;20243;-79
2023/08/28 11:44:20;;;;;;;6.00;3.78;;;;;;;24.41;100.00;98234.50;5057815;28;20244;-79
2023/08/28 11:46:47;;;;;;;3.90;3.50;;;;;;;24.21;100.00;98235.44;5062246;28;20255;-78